sensor_id;sensor_type;location;lat;lon;timestamp;P1;durP1;ratioP1;P2;durP2;ratioP2
27893;SDS011;15240;50.812;4.792;2023-05-17T00:02:05;17.13;;;5.93;;
27893;SDS011;15240;50.812;4.792;2023-05-17T00:04:31;16.10;;;5.77;;
27893;SDS011;15240;50.812;4.792;2023-05-17T00:06:57;21.17;;;7.00;;
27893;SDS011;15240;50.812;4.792;2023-05-17T00:09:23;16.80;;;6.73;;
27893;SDS011;15240;50.812;4.792;2023-05-17T00:11:49;17.53;;;6.53;;
27893;SDS011;15240;50.812;4.792;2023-05-17T00:14:15;15.53;;;6.47;;
27893;SDS011;15240;50.812;4.792;2023-05-17T00:16:42;16.87;;;7.00;;
27893;SDS011;15240;50.812;4.792;2023-05-17T00:19:08;18.07;;;7.07;;
27893;SDS011;15240;50.812;4.792;2023-05-17T00:21:34;20.87;;;7.00;;
27893;SDS011;15240;50.812;4.792;2023-05-17T00:24:00;22.50;;;7.07;;
27893;SDS011;15240;50.812;4.792;2023-05-17T00:26:26;19.23;;;6.27;;
27893;SDS011;15240;50.812;4.792;2023-05-17T00:28:53;18.03;;;7.13;;
27893;SDS011;15240;50.812;4.792;2023-05-17T00:31:19;20.47;;;6.80;;
27893;SDS011;15240;50.812;4.792;2023-05-17T00:33:45;20.10;;;7.27;;
27893;SDS011;15240;50.812;4.792;2023-05-17T00:36:11;18.37;;;6.67;;
27893;SDS011;15240;50.812;4.792;2023-05-17T00:38:37;16.97;;;6.50;;
27893;SDS011;15240;50.812;4.792;2023-05-17T00:41:03;21.00;;;8.00;;
27893;SDS011;15240;50.812;4.792;2023-05-17T00:43:30;19.17;;;7.57;;
27893;SDS011;15240;50.812;4.792;2023-05-17T00:45:56;20.80;;;7.10;;
27893;SDS011;15240;50.812;4.792;2023-05-17T00:48:22;16.33;;;7.43;;
27893;SDS011;15240;50.812;4.792;2023-05-17T00:50:51;18.00;;;7.43;;
27893;SDS011;15240;50.812;4.792;2023-05-17T00:53:18;15.77;;;7.30;;
27893;SDS011;15240;50.812;4.792;2023-05-17T00:55:45;22.70;;;8.15;;
27893;SDS011;15240;50.812;4.792;2023-05-17T00:58:11;23.33;;;8.10;;
27893;SDS011;15240;50.812;4.792;2023-05-17T01:00:37;16.70;;;7.43;;
27893;SDS011;15240;50.812;4.792;2023-05-17T01:03:04;20.07;;;7.53;;
27893;SDS011;15240;50.812;4.792;2023-05-17T01:05:30;20.43;;;7.73;;
27893;SDS011;15240;50.812;4.792;2023-05-17T01:07:57;22.33;;;7.97;;
27893;SDS011;15240;50.812;4.792;2023-05-17T01:10:23;25.73;;;9.07;;
27893;SDS011;15240;50.812;4.792;2023-05-17T01:15:26;18.93;;;8.20;;
27893;SDS011;15240;50.812;4.792;2023-05-17T01:17:55;20.90;;;9.30;;
27893;SDS011;15240;50.812;4.792;2023-05-17T01:28:06;23.27;;;9.37;;
27893;SDS011;15240;50.812;4.792;2023-05-17T01:30:32;21.33;;;9.17;;
27893;SDS011;15240;50.812;4.792;2023-05-17T01:32:59;30.53;;;9.60;;
27893;SDS011;15240;50.812;4.792;2023-05-17T01:35:26;23.60;;;9.47;;
27893;SDS011;15240;50.812;4.792;2023-05-17T01:37:52;28.00;;;10.03;;
27893;SDS011;15240;50.812;4.792;2023-05-17T01:40:18;21.90;;;9.73;;
27893;SDS011;15240;50.812;4.792;2023-05-17T01:42:45;23.80;;;9.97;;
27893;SDS011;15240;50.812;4.792;2023-05-17T01:50:25;21.30;;;10.43;;
27893;SDS011;15240;50.812;4.792;2023-05-17T01:52:54;30.20;;;10.07;;
27893;SDS011;15240;50.812;4.792;2023-05-17T01:55:33;25.23;;;10.63;;
27893;SDS011;15240;50.812;4.792;2023-05-17T01:58:02;26.43;;;10.63;;
27893;SDS011;15240;50.812;4.792;2023-05-17T02:00:30;26.70;;;9.83;;
27893;SDS011;15240;50.812;4.792;2023-05-17T02:05:43;26.03;;;10.90;;
27893;SDS011;15240;50.812;4.792;2023-05-17T02:08:09;26.03;;;11.43;;
27893;SDS011;15240;50.812;4.792;2023-05-17T02:10:35;31.00;;;11.73;;
27893;SDS011;15240;50.812;4.792;2023-05-17T02:13:01;19.67;;;10.57;;
27893;SDS011;15240;50.812;4.792;2023-05-17T02:15:28;23.60;;;10.40;;
27893;SDS011;15240;50.812;4.792;2023-05-17T02:17:54;22.40;;;10.80;;
27893;SDS011;15240;50.812;4.792;2023-05-17T02:20:20;24.40;;;10.30;;
27893;SDS011;15240;50.812;4.792;2023-05-17T02:22:46;27.90;;;11.00;;
27893;SDS011;15240;50.812;4.792;2023-05-17T02:25:13;21.43;;;10.30;;
27893;SDS011;15240;50.812;4.792;2023-05-17T02:27:40;21.00;;;10.47;;
27893;SDS011;15240;50.812;4.792;2023-05-17T02:30:06;25.17;;;11.47;;
27893;SDS011;15240;50.812;4.792;2023-05-17T02:32:32;22.33;;;11.40;;
27893;SDS011;15240;50.812;4.792;2023-05-17T02:35:01;26.00;;;11.70;;
27893;SDS011;15240;50.812;4.792;2023-05-17T02:37:27;25.47;;;12.53;;
27893;SDS011;15240;50.812;4.792;2023-05-17T02:45:42;31.37;;;12.30;;
27893;SDS011;15240;50.812;4.792;2023-05-17T02:48:08;29.93;;;13.33;;
27893;SDS011;15240;50.812;4.792;2023-05-17T02:50:34;28.63;;;13.67;;
27893;SDS011;15240;50.812;4.792;2023-05-17T02:53:00;26.73;;;13.77;;
27893;SDS011;15240;50.812;4.792;2023-05-17T02:55:27;27.77;;;12.50;;
27893;SDS011;15240;50.812;4.792;2023-05-17T02:57:53;27.37;;;13.40;;
27893;SDS011;15240;50.812;4.792;2023-05-17T03:00:19;25.77;;;13.40;;
27893;SDS011;15240;50.812;4.792;2023-05-17T03:02:45;27.37;;;12.87;;
27893;SDS011;15240;50.812;4.792;2023-05-17T03:05:11;30.10;;;13.10;;
27893;SDS011;15240;50.812;4.792;2023-05-17T03:07:38;30.20;;;12.50;;
27893;SDS011;15240;50.812;4.792;2023-05-17T03:10:04;23.70;;;12.40;;
27893;SDS011;15240;50.812;4.792;2023-05-17T03:12:31;24.57;;;12.93;;
27893;SDS011;15240;50.812;4.792;2023-05-17T03:14:57;20.97;;;12.70;;
27893;SDS011;15240;50.812;4.792;2023-05-17T03:17:23;25.93;;;13.03;;
27893;SDS011;15240;50.812;4.792;2023-05-17T03:25:58;30.60;;;14.90;;
27893;SDS011;15240;50.812;4.792;2023-05-17T03:34:31;28.77;;;15.23;;
27893;SDS011;15240;50.812;4.792;2023-05-17T03:43:06;32.27;;;16.53;;
27893;SDS011;15240;50.812;4.792;2023-05-17T03:45:33;30.60;;;16.00;;
27893;SDS011;15240;50.812;4.792;2023-05-17T03:50:25;27.30;;;15.60;;
27893;SDS011;15240;50.812;4.792;2023-05-17T03:52:51;36.27;;;16.13;;
27893;SDS011;15240;50.812;4.792;2023-05-17T03:58:03;30.03;;;15.40;;
27893;SDS011;15240;50.812;4.792;2023-05-17T04:00:29;33.67;;;16.60;;
27893;SDS011;15240;50.812;4.792;2023-05-17T04:02:55;27.70;;;15.00;;
27893;SDS011;15240;50.812;4.792;2023-05-17T04:05:21;26.97;;;15.23;;
27893;SDS011;15240;50.812;4.792;2023-05-17T04:07:48;33.60;;;16.50;;
27893;SDS011;15240;50.812;4.792;2023-05-17T04:10:14;31.77;;;16.37;;
27893;SDS011;15240;50.812;4.792;2023-05-17T04:12:40;27.80;;;15.63;;
27893;SDS011;15240;50.812;4.792;2023-05-17T04:15:07;32.67;;;15.67;;
27893;SDS011;15240;50.812;4.792;2023-05-17T04:17:33;34.70;;;16.30;;
27893;SDS011;15240;50.812;4.792;2023-05-17T04:19:59;30.63;;;16.97;;
27893;SDS011;15240;50.812;4.792;2023-05-17T04:22:26;27.83;;;17.43;;
27893;SDS011;15240;50.812;4.792;2023-05-17T04:24:52;32.13;;;17.73;;
27893;SDS011;15240;50.812;4.792;2023-05-17T04:27:18;34.20;;;18.37;;
27893;SDS011;15240;50.812;4.792;2023-05-17T04:29:45;31.57;;;18.17;;
27893;SDS011;15240;50.812;4.792;2023-05-17T04:32:11;36.13;;;17.83;;
27893;SDS011;15240;50.812;4.792;2023-05-17T04:34:38;30.50;;;17.67;;
27893;SDS011;15240;50.812;4.792;2023-05-17T04:37:04;32.33;;;17.77;;
27893;SDS011;15240;50.812;4.792;2023-05-17T04:39:31;29.03;;;18.63;;
27893;SDS011;15240;50.812;4.792;2023-05-17T04:41:57;34.07;;;18.80;;
27893;SDS011;15240;50.812;4.792;2023-05-17T04:44:23;29.77;;;18.53;;
27893;SDS011;15240;50.812;4.792;2023-05-17T04:46:49;32.57;;;19.00;;
27893;SDS011;15240;50.812;4.792;2023-05-17T04:49:16;32.13;;;19.73;;
27893;SDS011;15240;50.812;4.792;2023-05-17T04:51:42;37.93;;;19.57;;
27893;SDS011;15240;50.812;4.792;2023-05-17T04:54:08;40.07;;;20.33;;
27893;SDS011;15240;50.812;4.792;2023-05-17T04:56:35;34.00;;;20.43;;
27893;SDS011;15240;50.812;4.792;2023-05-17T05:01:45;37.07;;;19.93;;
27893;SDS011;15240;50.812;4.792;2023-05-17T05:04:11;34.40;;;19.60;;
27893;SDS011;15240;50.812;4.792;2023-05-17T05:06:37;36.10;;;20.50;;
27893;SDS011;15240;50.812;4.792;2023-05-17T05:09:04;34.73;;;19.27;;
27893;SDS011;15240;50.812;4.792;2023-05-17T05:11:31;33.97;;;18.77;;
27893;SDS011;15240;50.812;4.792;2023-05-17T05:13:57;30.77;;;19.53;;
27893;SDS011;15240;50.812;4.792;2023-05-17T05:16:23;35.00;;;19.93;;
27893;SDS011;15240;50.812;4.792;2023-05-17T05:18:50;37.87;;;19.07;;
27893;SDS011;15240;50.812;4.792;2023-05-17T05:24:19;32.20;;;18.97;;
27893;SDS011;15240;50.812;4.792;2023-05-17T05:26:45;32.43;;;18.60;;
27893;SDS011;15240;50.812;4.792;2023-05-17T05:29:12;32.13;;;17.77;;
27893;SDS011;15240;50.812;4.792;2023-05-17T05:31:38;33.07;;;18.27;;
27893;SDS011;15240;50.812;4.792;2023-05-17T05:34:04;32.50;;;17.93;;
27893;SDS011;15240;50.812;4.792;2023-05-17T05:36:30;26.97;;;16.17;;
27893;SDS011;15240;50.812;4.792;2023-05-17T05:38:56;32.10;;;17.33;;
27893;SDS011;15240;50.812;4.792;2023-05-17T05:41:22;28.83;;;16.20;;
27893;SDS011;15240;50.812;4.792;2023-05-17T05:43:48;29.03;;;16.67;;
27893;SDS011;15240;50.812;4.792;2023-05-17T05:46:15;25.93;;;16.40;;
27893;SDS011;15240;50.812;4.792;2023-05-17T05:48:41;26.63;;;16.70;;
27893;SDS011;15240;50.812;4.792;2023-05-17T05:51:08;29.87;;;17.43;;
27893;SDS011;15240;50.812;4.792;2023-05-17T05:53:35;29.77;;;15.80;;
27893;SDS011;15240;50.812;4.792;2023-05-17T05:56:01;27.57;;;15.47;;
27893;SDS011;15240;50.812;4.792;2023-05-17T05:58:28;30.97;;;16.20;;
27893;SDS011;15240;50.812;4.792;2023-05-17T06:00:54;24.77;;;14.83;;
27893;SDS011;15240;50.812;4.792;2023-05-17T06:03:21;26.93;;;15.20;;
27893;SDS011;15240;50.812;4.792;2023-05-17T06:05:47;28.20;;;14.07;;
27893;SDS011;15240;50.812;4.792;2023-05-17T06:08:13;23.80;;;13.40;;
27893;SDS011;15240;50.812;4.792;2023-05-17T06:10:39;16.50;;;10.97;;
27893;SDS011;15240;50.812;4.792;2023-05-17T06:13:05;22.77;;;11.27;;
27893;SDS011;15240;50.812;4.792;2023-05-17T06:15:31;19.57;;;11.77;;
27893;SDS011;15240;50.812;4.792;2023-05-17T06:17:58;25.57;;;11.67;;
27893;SDS011;15240;50.812;4.792;2023-05-17T06:20:24;21.93;;;10.70;;
27893;SDS011;15240;50.812;4.792;2023-05-17T06:22:50;23.73;;;11.23;;
27893;SDS011;15240;50.812;4.792;2023-05-17T06:25:16;21.50;;;10.40;;
27893;SDS011;15240;50.812;4.792;2023-05-17T06:27:42;20.00;;;11.03;;
27893;SDS011;15240;50.812;4.792;2023-05-17T06:30:08;22.57;;;10.23;;
27893;SDS011;15240;50.812;4.792;2023-05-17T06:32:35;16.10;;;8.83;;
27893;SDS011;15240;50.812;4.792;2023-05-17T06:35:01;20.67;;;9.60;;
27893;SDS011;15240;50.812;4.792;2023-05-17T06:37:27;19.77;;;9.47;;
27893;SDS011;15240;50.812;4.792;2023-05-17T06:40:00;18.50;;;8.83;;
27893;SDS011;15240;50.812;4.792;2023-05-17T06:42:28;15.87;;;8.23;;
27893;SDS011;15240;50.812;4.792;2023-05-17T06:44:54;19.07;;;9.33;;
27893;SDS011;15240;50.812;4.792;2023-05-17T06:47:20;19.07;;;9.07;;
27893;SDS011;15240;50.812;4.792;2023-05-17T06:49:46;22.23;;;9.47;;
27893;SDS011;15240;50.812;4.792;2023-05-17T06:52:12;19.73;;;9.20;;
27893;SDS011;15240;50.812;4.792;2023-05-17T06:54:38;18.47;;;9.30;;
27893;SDS011;15240;50.812;4.792;2023-05-17T06:57:05;21.03;;;9.07;;
27893;SDS011;15240;50.812;4.792;2023-05-17T06:59:31;17.10;;;8.93;;
27893;SDS011;15240;50.812;4.792;2023-05-17T07:01:57;17.87;;;8.63;;
27893;SDS011;15240;50.812;4.792;2023-05-17T07:04:25;19.43;;;9.40;;
27893;SDS011;15240;50.812;4.792;2023-05-17T07:06:51;19.97;;;8.43;;
27893;SDS011;15240;50.812;4.792;2023-05-17T07:09:18;16.20;;;7.97;;
27893;SDS011;15240;50.812;4.792;2023-05-17T07:11:45;20.57;;;8.53;;
27893;SDS011;15240;50.812;4.792;2023-05-17T07:14:11;17.00;;;8.23;;
27893;SDS011;15240;50.812;4.792;2023-05-17T07:16:37;21.40;;;8.67;;
27893;SDS011;15240;50.812;4.792;2023-05-17T07:19:03;18.43;;;8.63;;
27893;SDS011;15240;50.812;4.792;2023-05-17T07:21:29;20.77;;;7.53;;
27893;SDS011;15240;50.812;4.792;2023-05-17T07:23:55;13.63;;;6.97;;
27893;SDS011;15240;50.812;4.792;2023-05-17T07:26:21;18.80;;;7.70;;
27893;SDS011;15240;50.812;4.792;2023-05-17T07:28:48;14.20;;;6.40;;
27893;SDS011;15240;50.812;4.792;2023-05-17T07:31:14;15.53;;;5.97;;
27893;SDS011;15240;50.812;4.792;2023-05-17T07:33:40;14.53;;;5.20;;
27893;SDS011;15240;50.812;4.792;2023-05-17T07:36:07;14.87;;;5.50;;
27893;SDS011;15240;50.812;4.792;2023-05-17T07:38:33;18.93;;;6.27;;
27893;SDS011;15240;50.812;4.792;2023-05-17T07:40:59;16.33;;;5.53;;
27893;SDS011;15240;50.812;4.792;2023-05-17T07:43:26;17.63;;;5.20;;
27893;SDS011;15240;50.812;4.792;2023-05-17T07:45:52;14.63;;;5.47;;
27893;SDS011;15240;50.812;4.792;2023-05-17T07:48:18;17.03;;;5.80;;
27893;SDS011;15240;50.812;4.792;2023-05-17T07:50:45;16.20;;;5.10;;
27893;SDS011;15240;50.812;4.792;2023-05-17T07:53:11;11.10;;;5.17;;
27893;SDS011;15240;50.812;4.792;2023-05-17T07:55:37;13.77;;;4.57;;
27893;SDS011;15240;50.812;4.792;2023-05-17T07:58:03;15.57;;;4.90;;
27893;SDS011;15240;50.812;4.792;2023-05-17T08:00:29;12.80;;;4.47;;
27893;SDS011;15240;50.812;4.792;2023-05-17T08:02:57;14.37;;;4.60;;
27893;SDS011;15240;50.812;4.792;2023-05-17T08:05:23;13.03;;;4.70;;
27893;SDS011;15240;50.812;4.792;2023-05-17T08:07:49;10.15;;;4.28;;
27893;SDS011;15240;50.812;4.792;2023-05-17T08:10:16;11.95;;;4.00;;
27893;SDS011;15240;50.812;4.792;2023-05-17T08:12:42;12.38;;;4.25;;
27893;SDS011;15240;50.812;4.792;2023-05-17T08:15:08;11.85;;;3.65;;
27893;SDS011;15240;50.812;4.792;2023-05-17T08:17:34;11.82;;;4.10;;
27893;SDS011;15240;50.812;4.792;2023-05-17T08:20:02;13.63;;;4.13;;
27893;SDS011;15240;50.812;4.792;2023-05-17T08:22:30;9.43;;;3.60;;
27893;SDS011;15240;50.812;4.792;2023-05-17T08:24:55;11.32;;;3.88;;
27893;SDS011;15240;50.812;4.792;2023-05-17T08:27:22;7.88;;;3.17;;
27893;SDS011;15240;50.812;4.792;2023-05-17T08:29:50;8.65;;;3.92;;
27893;SDS011;15240;50.812;4.792;2023-05-17T08:32:17;10.93;;;3.80;;
27893;SDS011;15240;50.812;4.792;2023-05-17T08:34:43;11.00;;;3.87;;
27893;SDS011;15240;50.812;4.792;2023-05-17T08:37:09;12.30;;;4.10;;
27893;SDS011;15240;50.812;4.792;2023-05-17T08:39:36;10.60;;;3.90;;
27893;SDS011;15240;50.812;4.792;2023-05-17T08:42:02;11.70;;;3.80;;
27893;SDS011;15240;50.812;4.792;2023-05-17T08:44:31;9.73;;;3.05;;
27893;SDS011;15240;50.812;4.792;2023-05-17T08:46:57;10.23;;;3.57;;
27893;SDS011;15240;50.812;4.792;2023-05-17T08:49:26;11.63;;;3.53;;
27893;SDS011;15240;50.812;4.792;2023-05-17T08:51:53;8.65;;;3.50;;
27893;SDS011;15240;50.812;4.792;2023-05-17T08:54:20;9.82;;;3.28;;
27893;SDS011;15240;50.812;4.792;2023-05-17T08:56:47;11.30;;;3.20;;
27893;SDS011;15240;50.812;4.792;2023-05-17T08:59:16;11.43;;;3.45;;
27893;SDS011;15240;50.812;4.792;2023-05-17T09:01:43;10.97;;;3.17;;
27893;SDS011;15240;50.812;4.792;2023-05-17T09:04:14;10.35;;;3.42;;
27893;SDS011;15240;50.812;4.792;2023-05-17T09:06:40;8.20;;;3.05;;
27893;SDS011;15240;50.812;4.792;2023-05-17T09:09:08;9.52;;;3.35;;
27893;SDS011;15240;50.812;4.792;2023-05-17T09:11:35;10.98;;;3.72;;
27893;SDS011;15240;50.812;4.792;2023-05-17T09:14:02;10.20;;;3.50;;
27893;SDS011;15240;50.812;4.792;2023-05-17T09:16:32;7.63;;;3.13;;
27893;SDS011;15240;50.812;4.792;2023-05-17T09:19:02;7.63;;;3.10;;
27893;SDS011;15240;50.812;4.792;2023-05-17T09:21:28;9.87;;;3.47;;
27893;SDS011;15240;50.812;4.792;2023-05-17T09:23:58;11.27;;;3.57;;
27893;SDS011;15240;50.812;4.792;2023-05-17T09:26:25;10.00;;;3.23;;
27893;SDS011;15240;50.812;4.792;2023-05-17T09:29:01;8.20;;;3.47;;
27893;SDS011;15240;50.812;4.792;2023-05-17T09:31:32;9.47;;;3.40;;
27893;SDS011;15240;50.812;4.792;2023-05-17T09:33:58;9.97;;;3.53;;
27893;SDS011;15240;50.812;4.792;2023-05-17T09:36:25;11.63;;;3.30;;
27893;SDS011;15240;50.812;4.792;2023-05-17T09:41:17;9.03;;;3.17;;
27893;SDS011;15240;50.812;4.792;2023-05-17T09:43:43;13.60;;;3.40;;
27893;SDS011;15240;50.812;4.792;2023-05-17T09:46:10;10.07;;;2.97;;
27893;SDS011;15240;50.812;4.792;2023-05-17T09:48:37;10.87;;;2.87;;
27893;SDS011;15240;50.812;4.792;2023-05-17T09:51:04;11.57;;;2.67;;
27893;SDS011;15240;50.812;4.792;2023-05-17T09:53:32;11.20;;;3.20;;
27893;SDS011;15240;50.812;4.792;2023-05-17T09:56:02;10.10;;;3.07;;
27893;SDS011;15240;50.812;4.792;2023-05-17T09:58:32;9.23;;;2.77;;
27893;SDS011;15240;50.812;4.792;2023-05-17T10:01:02;8.60;;;3.03;;
27893;SDS011;15240;50.812;4.792;2023-05-17T10:03:30;11.70;;;3.17;;
27893;SDS011;15240;50.812;4.792;2023-05-17T10:05:57;7.30;;;2.50;;
27893;SDS011;15240;50.812;4.792;2023-05-17T10:08:23;8.33;;;2.93;;
27893;SDS011;15240;50.812;4.792;2023-05-17T10:10:54;12.77;;;2.70;;
27893;SDS011;15240;50.812;4.792;2023-05-17T10:13:21;9.17;;;2.67;;
27893;SDS011;15240;50.812;4.792;2023-05-17T10:15:49;9.57;;;3.07;;
27893;SDS011;15240;50.812;4.792;2023-05-17T10:18:15;7.97;;;2.60;;
27893;SDS011;15240;50.812;4.792;2023-05-17T10:20:42;9.70;;;2.93;;
27893;SDS011;15240;50.812;4.792;2023-05-17T10:23:10;8.57;;;2.70;;
27893;SDS011;15240;50.812;4.792;2023-05-17T10:25:36;8.60;;;2.33;;
27893;SDS011;15240;50.812;4.792;2023-05-17T10:28:03;9.83;;;2.57;;
27893;SDS011;15240;50.812;4.792;2023-05-17T10:30:33;8.53;;;2.70;;
27893;SDS011;15240;50.812;4.792;2023-05-17T10:33:00;9.27;;;2.53;;
27893;SDS011;15240;50.812;4.792;2023-05-17T10:35:26;15.53;;;2.90;;
27893;SDS011;15240;50.812;4.792;2023-05-17T10:37:52;12.67;;;3.30;;
27893;SDS011;15240;50.812;4.792;2023-05-17T10:40:18;9.70;;;3.00;;
27893;SDS011;15240;50.812;4.792;2023-05-17T10:42:50;10.43;;;2.73;;
27893;SDS011;15240;50.812;4.792;2023-05-17T10:45:21;11.00;;;2.50;;
27893;SDS011;15240;50.812;4.792;2023-05-17T10:47:49;8.23;;;2.80;;
27893;SDS011;15240;50.812;4.792;2023-05-17T10:50:20;11.67;;;2.80;;
27893;SDS011;15240;50.812;4.792;2023-05-17T10:52:47;12.80;;;2.70;;
27893;SDS011;15240;50.812;4.792;2023-05-17T10:55:16;11.13;;;2.73;;
27893;SDS011;15240;50.812;4.792;2023-05-17T10:57:42;12.83;;;3.00;;
27893;SDS011;15240;50.812;4.792;2023-05-17T11:00:09;13.13;;;2.50;;
27893;SDS011;15240;50.812;4.792;2023-05-17T11:02:43;9.73;;;2.30;;
27893;SDS011;15240;50.812;4.792;2023-05-17T11:08:15;10.93;;;2.50;;
27893;SDS011;15240;50.812;4.792;2023-05-17T11:13:26;7.63;;;2.40;;
27893;SDS011;15240;50.812;4.792;2023-05-17T11:16:02;13.17;;;2.60;;
27893;SDS011;15240;50.812;4.792;2023-05-17T11:18:44;6.20;;;2.13;;
27893;SDS011;15240;50.812;4.792;2023-05-17T11:21:12;10.27;;;2.10;;
27893;SDS011;15240;50.812;4.792;2023-05-17T11:23:38;11.40;;;2.43;;
27893;SDS011;15240;50.812;4.792;2023-05-17T11:26:14;7.83;;;2.50;;
27893;SDS011;15240;50.812;4.792;2023-05-17T11:28:41;13.07;;;2.73;;
27893;SDS011;15240;50.812;4.792;2023-05-17T11:31:07;13.53;;;2.77;;
27893;SDS011;15240;50.812;4.792;2023-05-17T11:33:51;8.23;;;2.63;;
27893;SDS011;15240;50.812;4.792;2023-05-17T11:36:19;10.43;;;2.80;;
27893;SDS011;15240;50.812;4.792;2023-05-17T11:38:49;8.27;;;2.23;;
27893;SDS011;15240;50.812;4.792;2023-05-17T11:41:35;9.00;;;2.30;;
27893;SDS011;15240;50.812;4.792;2023-05-17T11:44:01;11.87;;;2.33;;
27893;SDS011;15240;50.812;4.792;2023-05-17T11:46:29;7.93;;;2.30;;
27893;SDS011;15240;50.812;4.792;2023-05-17T11:48:56;6.30;;;2.10;;
27893;SDS011;15240;50.812;4.792;2023-05-17T11:51:23;8.23;;;2.40;;
27893;SDS011;15240;50.812;4.792;2023-05-17T11:53:50;9.17;;;2.33;;
27893;SDS011;15240;50.812;4.792;2023-05-17T11:56:19;8.17;;;2.37;;
27893;SDS011;15240;50.812;4.792;2023-05-17T11:58:46;9.97;;;2.33;;
27893;SDS011;15240;50.812;4.792;2023-05-17T12:01:15;12.00;;;2.70;;
27893;SDS011;15240;50.812;4.792;2023-05-17T12:03:41;8.47;;;2.80;;
27893;SDS011;15240;50.812;4.792;2023-05-17T12:06:08;12.10;;;2.83;;
27893;SDS011;15240;50.812;4.792;2023-05-17T12:08:35;8.47;;;2.00;;
27893;SDS011;15240;50.812;4.792;2023-05-17T12:11:03;9.00;;;2.50;;
27893;SDS011;15240;50.812;4.792;2023-05-17T12:13:30;10.40;;;2.20;;
27893;SDS011;15240;50.812;4.792;2023-05-17T12:16:00;8.17;;;1.87;;
27893;SDS011;15240;50.812;4.792;2023-05-17T12:18:36;6.57;;;1.67;;
27893;SDS011;15240;50.812;4.792;2023-05-17T12:21:02;8.33;;;2.10;;
27893;SDS011;15240;50.812;4.792;2023-05-17T12:23:29;6.67;;;2.07;;
27893;SDS011;15240;50.812;4.792;2023-05-17T12:26:03;8.30;;;2.37;;
27893;SDS011;15240;50.812;4.792;2023-05-17T12:28:30;11.50;;;2.83;;
27893;SDS011;15240;50.812;4.792;2023-05-17T12:30:56;6.67;;;2.23;;
27893;SDS011;15240;50.812;4.792;2023-05-17T12:33:23;7.80;;;2.43;;
27893;SDS011;15240;50.812;4.792;2023-05-17T12:35:49;8.07;;;1.97;;
27893;SDS011;15240;50.812;4.792;2023-05-17T12:38:16;8.03;;;2.20;;
27893;SDS011;15240;50.812;4.792;2023-05-17T12:40:42;7.30;;;2.40;;
27893;SDS011;15240;50.812;4.792;2023-05-17T12:43:09;8.77;;;2.10;;
27893;SDS011;15240;50.812;4.792;2023-05-17T12:45:35;6.50;;;2.27;;
27893;SDS011;15240;50.812;4.792;2023-05-17T12:48:01;7.20;;;1.77;;
27893;SDS011;15240;50.812;4.792;2023-05-17T12:50:29;9.07;;;2.20;;
27893;SDS011;15240;50.812;4.792;2023-05-17T12:52:56;7.00;;;2.40;;
27893;SDS011;15240;50.812;4.792;2023-05-17T12:55:22;8.33;;;2.30;;
27893;SDS011;15240;50.812;4.792;2023-05-17T12:57:52;7.23;;;2.27;;
27893;SDS011;15240;50.812;4.792;2023-05-17T13:00:19;8.13;;;2.50;;
27893;SDS011;15240;50.812;4.792;2023-05-17T13:02:46;11.27;;;2.60;;
27893;SDS011;15240;50.812;4.792;2023-05-17T13:05:15;11.13;;;2.60;;
27893;SDS011;15240;50.812;4.792;2023-05-17T13:07:48;8.30;;;2.37;;
27893;SDS011;15240;50.812;4.792;2023-05-17T13:12:56;6.43;;;1.87;;
27893;SDS011;15240;50.812;4.792;2023-05-17T13:15:32;7.60;;;2.17;;
27893;SDS011;15240;50.812;4.792;2023-05-17T13:17:58;7.03;;;2.60;;
27893;SDS011;15240;50.812;4.792;2023-05-17T13:20:25;7.17;;;2.33;;
27893;SDS011;15240;50.812;4.792;2023-05-17T13:22:51;9.07;;;2.50;;
27893;SDS011;15240;50.812;4.792;2023-05-17T13:25:18;10.13;;;2.20;;
27893;SDS011;15240;50.812;4.792;2023-05-17T13:27:45;8.63;;;2.33;;
27893;SDS011;15240;50.812;4.792;2023-05-17T13:30:13;8.30;;;2.60;;
27893;SDS011;15240;50.812;4.792;2023-05-17T13:32:40;6.10;;;2.07;;
27893;SDS011;15240;50.812;4.792;2023-05-17T13:35:07;9.27;;;2.50;;
27893;SDS011;15240;50.812;4.792;2023-05-17T13:37:33;4.73;;;2.10;;
27893;SDS011;15240;50.812;4.792;2023-05-17T13:40:00;7.10;;;2.17;;
27893;SDS011;15240;50.812;4.792;2023-05-17T13:42:26;12.03;;;2.37;;
27893;SDS011;15240;50.812;4.792;2023-05-17T13:44:53;8.07;;;2.23;;
27893;SDS011;15240;50.812;4.792;2023-05-17T13:47:19;7.00;;;2.17;;
27893;SDS011;15240;50.812;4.792;2023-05-17T13:49:46;10.93;;;2.37;;
27893;SDS011;15240;50.812;4.792;2023-05-17T13:52:13;7.07;;;2.40;;
27893;SDS011;15240;50.812;4.792;2023-05-17T13:54:42;6.83;;;2.30;;
27893;SDS011;15240;50.812;4.792;2023-05-17T13:57:08;14.73;;;2.90;;
27893;SDS011;15240;50.812;4.792;2023-05-17T13:59:34;7.37;;;2.63;;
27893;SDS011;15240;50.812;4.792;2023-05-17T14:02:00;9.73;;;2.47;;
27893;SDS011;15240;50.812;4.792;2023-05-17T14:04:28;7.10;;;2.63;;
27893;SDS011;15240;50.812;4.792;2023-05-17T14:06:54;11.77;;;2.30;;
27893;SDS011;15240;50.812;4.792;2023-05-17T14:09:20;6.97;;;2.43;;
27893;SDS011;15240;50.812;4.792;2023-05-17T14:11:46;8.77;;;2.37;;
27893;SDS011;15240;50.812;4.792;2023-05-17T14:14:12;6.97;;;2.40;;
27893;SDS011;15240;50.812;4.792;2023-05-17T14:16:38;9.47;;;2.47;;
27893;SDS011;15240;50.812;4.792;2023-05-17T14:19:05;7.33;;;2.13;;
27893;SDS011;15240;50.812;4.792;2023-05-17T14:21:31;7.27;;;2.50;;
27893;SDS011;15240;50.812;4.792;2023-05-17T14:23:57;9.03;;;2.50;;
27893;SDS011;15240;50.812;4.792;2023-05-17T14:26:23;6.40;;;2.67;;
27893;SDS011;15240;50.812;4.792;2023-05-17T14:28:50;11.63;;;2.63;;
27893;SDS011;15240;50.812;4.792;2023-05-17T14:31:16;6.97;;;2.60;;
27893;SDS011;15240;50.812;4.792;2023-05-17T14:33:42;7.27;;;2.40;;
27893;SDS011;15240;50.812;4.792;2023-05-17T14:36:08;9.50;;;2.30;;
27893;SDS011;15240;50.812;4.792;2023-05-17T14:38:35;7.97;;;2.30;;
27893;SDS011;15240;50.812;4.792;2023-05-17T14:41:02;7.07;;;2.50;;
27893;SDS011;15240;50.812;4.792;2023-05-17T14:43:30;11.40;;;2.50;;
27893;SDS011;15240;50.812;4.792;2023-05-17T14:45:56;10.27;;;2.50;;
27893;SDS011;15240;50.812;4.792;2023-05-17T14:48:22;9.20;;;2.57;;
27893;SDS011;15240;50.812;4.792;2023-05-17T14:50:48;5.53;;;2.23;;
27893;SDS011;15240;50.812;4.792;2023-05-17T14:53:15;7.13;;;2.50;;
27893;SDS011;15240;50.812;4.792;2023-05-17T14:55:42;9.80;;;2.50;;
27893;SDS011;15240;50.812;4.792;2023-05-17T14:58:08;8.03;;;2.70;;
27893;SDS011;15240;50.812;4.792;2023-05-17T15:00:37;7.47;;;2.63;;
27893;SDS011;15240;50.812;4.792;2023-05-17T15:03:05;6.63;;;2.47;;
27893;SDS011;15240;50.812;4.792;2023-05-17T15:05:31;8.80;;;2.80;;
27893;SDS011;15240;50.812;4.792;2023-05-17T15:07:57;7.97;;;2.97;;
27893;SDS011;15240;50.812;4.792;2023-05-17T15:10:23;9.57;;;2.87;;
27893;SDS011;15240;50.812;4.792;2023-05-17T15:12:49;6.97;;;2.53;;
27893;SDS011;15240;50.812;4.792;2023-05-17T15:15:16;8.47;;;2.70;;
27893;SDS011;15240;50.812;4.792;2023-05-17T15:17:44;6.23;;;2.60;;
27893;SDS011;15240;50.812;4.792;2023-05-17T15:20:10;8.47;;;2.67;;
27893;SDS011;15240;50.812;4.792;2023-05-17T15:22:37;7.93;;;2.37;;
27893;SDS011;15240;50.812;4.792;2023-05-17T15:25:04;11.33;;;2.90;;
27893;SDS011;15240;50.812;4.792;2023-05-17T15:27:31;11.93;;;2.70;;
27893;SDS011;15240;50.812;4.792;2023-05-17T15:29:57;12.17;;;3.20;;
27893;SDS011;15240;50.812;4.792;2023-05-17T15:32:23;8.13;;;2.50;;
27893;SDS011;15240;50.812;4.792;2023-05-17T15:34:50;8.43;;;2.80;;
27893;SDS011;15240;50.812;4.792;2023-05-17T15:37:16;7.60;;;2.80;;
27893;SDS011;15240;50.812;4.792;2023-05-17T15:39:42;6.20;;;2.87;;